Time;durP1;ratioP1;P1;durP2;ratioP2;P2;SDS_P1;SDS_P2;PMS_P1;PMS_P2;Temp;Humidity;BMP_temperature;BMP_pressure;BME280_temperature;BME280_humidity;BME280_pressure;Samples;Min_cycle;Max_cycle;Signal;HPM_P1;HPM_P2
2023/05/19 00:01:12;;;;;;;12.50;8.23;;;;;;;9.25;67.93;102560.56;5056974;28;20052;-86
2023/05/19 00:03:47;;;;;;;13.77;8.20;;;;;;;9.25;68.10;102557.94;5055819;28;20026;-85
2023/05/19 00:06:13;;;;;;;13.90;8.15;;;;;;;9.29;67.93;102571.91;5063930;28;20075;-86
2023/05/19 00:08:38;;;;;;;14.07;8.45;;;;;;;9.21;68.39;102556.34;5056094;28;20037;-86
2023/05/19 00:11:05;;;;;;;11.85;7.60;;;;;;;9.07;68.26;102532.22;5042017;28;20029;-86
2023/05/19 00:13:30;;;;;;;17.45;8.90;;;;;;;9.23;68.95;102564.25;5033077;28;20029;-85
2023/05/19 00:15:56;;;;;;;13.38;8.80;;;;;;;9.23;69.06;102564.25;5029241;28;20072;-86
2023/05/19 00:18:22;;;;;;;15.38;8.77;;;;;;;9.09;69.13;102546.25;5042529;28;20046;-86
2023/05/19 00:20:47;;;;;;;16.52;8.55;;;;;;;9.08;69.63;102549.84;5044262;28;20025;-86
2023/05/19 00:23:13;;;;;;;9.57;7.75;;;;;;;9.10;69.50;102555.09;5027442;28;20034;-85
2023/05/19 00:25:38;;;;;;;13.68;8.25;;;;;;;9.12;69.63;102558.53;5034527;28;20030;-85
2023/05/19 00:28:03;;;;;;;13.73;8.10;;;;;;;9.06;71.02;102546.41;5034547;28;20391;-85
2023/05/19 00:30:29;;;;;;;14.20;8.43;;;;;;;9.05;70.34;102545.53;5034319;28;20757;-86
2023/05/19 00:32:55;;;;;;;12.60;8.10;;;;;;;9.04;70.35;102541.19;5034775;28;20036;-86
2023/05/19 00:35:21;;;;;;;15.52;8.60;;;;;;;9.03;70.88;102539.44;5034501;28;20038;-86
2023/05/19 00:37:46;;;;;;;11.95;8.00;;;;;;;8.91;70.84;102528.50;5027221;28;20034;-86
2023/05/19 00:40:12;;;;;;;11.57;7.85;;;;;;;8.98;71.16;102541.44;5029212;28;20183;-85
2023/05/19 00:42:37;;;;;;;14.43;8.02;;;;;;;8.96;71.12;102542.41;5033270;28;20462;-85
2023/05/19 00:45:03;;;;;;;10.77;7.40;;;;;;;8.94;71.54;102536.31;5035513;28;20422;-86
2023/05/19 00:47:29;;;;;;;12.85;8.27;;;;;;;8.80;71.76;102513.06;5034951;28;20093;-85
2023/05/19 00:49:54;;;;;;;12.32;8.20;;;;;;;8.79;71.93;102516.63;5042585;28;20051;-86
2023/05/19 00:52:20;;;;;;;13.07;8.23;;;;;;;8.86;71.72;102526.91;5039043;28;20064;-86
2023/05/19 00:54:45;;;;;;;12.23;8.10;;;;;;;8.75;72.63;102517.72;5034203;28;20018;-86
2023/05/19 00:57:13;;;;;;;12.02;7.75;;;;;;;8.73;72.92;102528.38;5022517;28;20041;-86
2023/05/19 00:59:38;;;;;;;12.32;7.97;;;;;;;8.70;72.87;102524.03;5048707;28;20013;-85
2023/05/19 01:02:03;;;;;;;12.60;7.60;;;;;;;8.77;73.40;102548.50;5059195;28;20041;-85
2023/05/19 01:04:33;;;;;;;14.02;8.38;;;;;;;8.68;74.17;102544.44;5055599;28;20021;-84
2023/05/19 01:06:59;;;;;;;15.52;8.32;;;;;;;8.69;74.33;102545.28;5056147;28;20037;-85
2023/05/19 01:09:24;;;;;;;15.00;8.10;;;;;;;8.66;74.96;102545.41;5044839;28;20029;-86
2023/05/19 01:11:50;;;;;;;10.48;7.72;;;;;;;8.58;75.25;102535.16;5039087;28;20020;-86
2023/05/19 01:14:16;;;;;;;10.90;7.65;;;;;;;8.60;75.99;102543.91;5034543;28;20479;-86
2023/05/19 01:16:48;;;;;;;11.82;7.57;;;;;;;8.57;76.60;102536.06;5039017;28;20044;-84
2023/05/19 01:19:35;;;;;;;12.52;7.80;;;;;;;8.59;76.70;102538.66;5038592;28;20053;-86
2023/05/19 01:22:31;;;;;;;16.63;7.68;;;;;;;8.57;76.51;102540.50;5039607;28;20017;-86
2023/05/19 01:25:30;;;;;;;14.70;7.65;;;;;;;8.51;77.77;102539.84;5038561;28;20032;-86
2023/05/19 01:28:19;;;;;;;13.18;7.50;;;;;;;8.48;78.48;102541.75;5041802;28;20034;-86
2023/05/19 01:30:51;;;;;;;12.18;7.30;;;;;;;8.49;78.67;102535.53;5030609;28;20348;-85
2023/05/19 01:33:17;;;;;;;11.60;6.95;;;;;;;8.45;79.44;102537.44;5042280;28;20021;-86
2023/05/19 01:35:44;;;;;;;12.93;7.00;;;;;;;8.41;79.84;102543.75;5041134;28;20029;-85
2023/05/19 01:38:12;;;;;;;13.20;7.78;;;;;;;8.36;80.49;102529.84;5042285;28;20025;-85
2023/05/19 01:40:40;;;;;;;15.25;7.00;;;;;;;8.37;80.20;102528.06;5035162;28;20034;-85
2023/05/19 01:43:09;;;;;;;13.60;6.93;;;;;;;8.32;80.84;102528.22;5043617;28;20026;-85
2023/05/19 01:45:35;;;;;;;11.63;6.80;;;;;;;8.36;80.25;102531.63;5043169;28;20072;-85
2023/05/19 01:48:03;;;;;;;10.77;7.18;;;;;;;8.32;80.93;102531.72;5035219;28;20676;-85
2023/05/19 01:50:29;;;;;;;11.48;6.55;;;;;;;8.31;81.18;102527.38;5042339;28;20021;-85
2023/05/19 01:52:54;;;;;;;17.30;7.55;;;;;;;8.32;81.13;102526.44;5045559;28;20026;-84
2023/05/19 01:55:22;;;;;;;13.00;7.10;;;;;;;8.26;81.51;102513.47;5045248;28;20030;-85
2023/05/19 01:58:25;;;;;;;21.42;7.65;;;;;;;8.32;79.98;102518.50;5040597;28;20032;-85
2023/05/19 02:01:29;;;;;;;14.57;6.60;;;;;;;8.31;80.41;102518.56;5041224;28;20021;-85
2023/05/19 02:04:18;;;;;;;14.85;7.15;;;;;;;8.27;80.66;102514.31;5021777;28;20487;-85
2023/05/19 02:07:04;;;;;;;9.75;6.75;;;;;;;8.26;80.80;102521.41;5043084;28;20037;-84
2023/05/19 02:10:05;;;;;;;12.88;7.28;;;;;;;8.26;80.83;102520.53;5044235;28;20092;-86
2023/05/19 02:12:36;;;;;;;12.80;7.88;;;;;;;8.13;82.45;102506.94;5036357;28;20026;-85
2023/05/19 02:15:15;;;;;;;10.73;7.07;;;;;;;8.05;81.47;102491.34;5043899;28;20384;-85
2023/05/19 02:17:46;;;;;;;13.55;7.50;;;;;;;8.11;82.45;102506.13;5042179;28;20076;-85
2023/05/19 02:20:13;;;;;;;13.32;7.80;;;;;;;8.13;82.41;102523.66;5043684;28;20487;-85
2023/05/19 02:22:39;;;;;;;11.40;7.00;;;;;;;8.12;82.76;102521.09;5042792;28;20025;-84
2023/05/19 02:25:05;;;;;;;11.40;7.05;;;;;;;8.09;82.68;102510.63;5044782;28;20049;-85
2023/05/19 02:27:31;;;;;;;13.55;7.43;;;;;;;8.09;83.22;102522.09;5043538;28;20034;-84
2023/05/19 02:29:56;;;;;;;12.70;7.72;;;;;;;8.06;83.41;102516.03;5041512;28;20036;-85
2023/05/19 02:32:21;;;;;;;10.13;7.00;;;;;;;8.05;82.64;102509.88;5039963;28;20037;-84
2023/05/19 02:34:47;;;;;;;16.77;8.23;;;;;;;8.04;82.90;102513.44;5040339;28;20502;-84
2023/05/19 02:37:16;;;;;;;12.32;7.78;;;;;;;8.05;83.52;102511.66;5038552;28;20088;-84
2023/05/19 02:39:43;;;;;;;14.65;7.93;;;;;;;7.97;82.74;102498.72;5037554;28;20037;-84
2023/05/19 02:42:10;;;;;;;14.63;7.57;;;;;;;7.96;83.53;102497.03;5041522;28;20033;-84
2023/05/19 02:44:36;;;;;;;14.98;8.20;;;;;;;8.00;83.76;102513.63;5040999;28;20467;-86
2023/05/19 02:47:01;;;;;;;15.55;7.95;;;;;;;7.99;84.45;102509.25;5036943;28;20057;-85
2023/05/19 02:49:29;;;;;;;15.55;8.07;;;;;;;7.99;84.22;102507.47;5041562;28;20036;-86
2023/05/19 02:51:55;;;;;;;12.50;7.60;;;;;;;7.95;83.53;102505.88;5040943;28;20032;-85
2023/05/19 02:54:20;;;;;;;15.20;8.23;;;;;;;7.93;84.09;102500.63;5043177;28;20045;-85
2023/05/19 02:56:45;;;;;;;11.98;7.25;;;;;;;7.94;84.11;102504.13;5032977;28;20056;-85
2023/05/19 02:59:11;;;;;;;12.48;8.02;;;;;;;7.91;84.35;102499.84;5042384;28;20044;-85
2023/05/19 03:01:36;;;;;;;12.13;7.60;;;;;;;7.92;84.55;102498.03;5045984;28;20029;-85
2023/05/19 03:04:02;;;;;;;14.13;8.55;;;;;;;7.88;85.25;102497.31;5046052;28;20534;-85
2023/05/19 03:06:28;;;;;;;12.02;7.78;;;;;;;7.80;85.20;102486.16;5049800;28;20026;-84
2023/05/19 03:08:53;;;;;;;11.68;8.10;;;;;;;7.85;85.28;102505.34;5040236;28;20073;-84
2023/05/19 03:11:18;;;;;;;16.80;8.30;;;;;;;7.75;85.65;102486.34;5038781;28;20033;-84
2023/05/19 03:13:44;;;;;;;15.43;8.40;;;;;;;7.83;85.35;102504.56;5047314;28;20037;-84
2023/05/19 03:16:10;;;;;;;13.43;8.23;;;;;;;7.82;85.71;102501.97;5049820;28;20061;-85
2023/05/19 03:18:36;;;;;;;14.45;7.95;;;;;;;7.82;85.74;102504.63;5051677;28;20046;-86
2023/05/19 03:21:02;;;;;;;14.70;7.60;;;;;;;7.70;86.09;102490.94;5031154;28;20037;-85
2023/05/19 03:23:27;;;;;;;12.98;8.13;;;;;;;7.76;85.94;102508.34;5044999;28;20077;-85
2023/05/19 03:25:54;;;;;;;14.38;8.18;;;;;;;7.73;85.20;102501.41;5035473;28;20022;-84
2023/05/19 03:28:20;;;;;;;13.63;7.90;;;;;;;7.69;85.91;102504.22;5038474;28;20386;-84
2023/05/19 03:30:45;;;;;;;11.80;8.77;;;;;;;7.74;86.32;102510.19;5042433;28;20022;-84
2023/05/19 03:33:10;;;;;;;16.45;8.55;;;;;;;7.74;86.37;102512.84;5037394;28;20033;-84
2023/05/19 03:35:36;;;;;;;15.88;8.63;;;;;;;7.72;86.24;102518.19;5038563;28;20025;-84
2023/05/19 03:38:01;;;;;;;14.63;8.52;;;;;;;7.72;86.43;102517.31;5041203;28;20471;-84
2023/05/19 03:40:26;;;;;;;13.60;8.15;;;;;;;7.68;86.69;102513.94;5039146;28;20029;-83
2023/05/19 03:42:53;;;;;;;15.55;8.57;;;;;;;7.68;86.40;102515.72;5050666;28;20044;-84
2023/05/19 03:45:18;;;;;;;17.55;8.57;;;;;;;7.62;86.55;102516.81;5044250;28;20033;-85
2023/05/19 03:47:45;;;;;;;13.38;8.65;;;;;;;7.63;87.17;102522.94;5044376;28;20035;-84
2023/05/19 03:50:10;;;;;;;11.48;8.10;;;;;;;7.62;87.09;102519.44;5039549;28;20033;-84
2023/05/19 03:52:37;;;;;;;9.45;7.53;;;;;;;7.63;86.94;102530.88;5047501;28;20064;-85
2023/05/19 03:55:03;;;;;;;12.88;8.30;;;;;;;7.58;86.45;102528.44;5040082;28;20140;-85
2023/05/19 03:57:28;;;;;;;11.23;8.00;;;;;;;7.50;86.29;102507.56;5037378;28;20476;-85
2023/05/19 03:59:53;;;;;;;11.32;8.23;;;;;;;7.49;87.50;102502.31;5040893;28;20029;-84
2023/05/19 04:02:19;;;;;;;11.15;8.50;;;;;;;7.56;86.92;102524.97;5038839;28;20033;-84
2023/05/19 04:04:44;;;;;;;14.00;8.15;;;;;;;7.57;87.65;102516.13;5038776;28;20025;-85
2023/05/19 04:07:10;;;;;;;12.40;8.32;;;;;;;7.55;87.46;102510.88;5037517;28;20040;-84
2023/05/19 04:09:36;;;;;;;12.10;8.40;;;;;;;7.55;88.37;102521.47;5032698;28;20494;-84
2023/05/19 04:12:01;;;;;;;15.70;8.93;;;;;;;7.55;88.92;102520.59;5034169;28;20029;-84
2023/05/19 04:14:27;;;;;;;14.50;8.55;;;;;;;7.51;87.91;102517.22;5037872;28;20033;-84
2023/05/19 04:16:53;;;;;;;12.73;8.23;;;;;;;7.52;88.58;102516.28;5028464;28;20029;-84
2023/05/19 04:19:18;;;;;;;13.02;9.30;;;;;;;7.42;89.09;102501.69;5040860;28;20032;-84
2023/05/19 04:21:43;;;;;;;13.73;9.13;;;;;;;7.49;89.74;102513.75;5042319;28;20079;-84
2023/05/19 04:24:08;;;;;;;13.05;9.10;;;;;;;7.46;89.76;102507.72;5041563;28;20033;-83
2023/05/19 04:26:34;;;;;;;14.57;9.10;;;;;;;7.48;90.28;102513.81;5042542;28;20022;-83
2023/05/19 04:29:03;;;;;;;15.10;9.13;;;;;;;7.48;89.72;102516.47;5025939;28;20068;-84
2023/05/19 04:31:28;;;;;;;14.10;9.23;;;;;;;7.43;90.50;102511.34;5040366;28;20025;-84
2023/05/19 04:33:54;;;;;;;15.73;9.38;;;;;;;7.47;90.50;102510.31;5042249;28;20368;-84
2023/05/19 04:36:20;;;;;;;18.38;9.98;;;;;;;7.45;91.19;102508.66;5040593;28;20033;-84
2023/05/19 04:38:46;;;;;;;12.63;9.07;;;;;;;7.48;91.23;102517.31;5044399;28;20029;-84
2023/05/19 04:41:12;;;;;;;13.02;9.27;;;;;;;7.50;91.66;102518.13;5046462;28;20107;-84
2023/05/19 04:43:40;;;;;;;14.68;9.40;;;;;;;7.49;90.92;102512.88;5044163;28;20032;-84
2023/05/19 04:46:11;;;;;;;18.55;9.68;;;;;;;7.52;91.76;102516.28;5045061;28;20042;-84
2023/05/19 04:48:37;;;;;;;19.30;9.90;;;;;;;7.51;92.37;102519.88;5044228;28;20026;-84
2023/05/19 04:51:02;;;;;;;16.25;10.25;;;;;;;7.49;92.33;102520.81;5044693;28;20022;-84
2023/05/19 04:53:28;;;;;;;15.05;10.40;;;;;;;7.56;92.63;102524.97;5043172;28;20033;-85
2023/05/19 04:55:53;;;;;;;17.55;9.85;;;;;;;7.58;92.30;102517.84;5043306;28;20025;-85
2023/05/19 04:58:18;;;;;;;20.13;10.57;;;;;;;7.60;91.86;102518.66;5041037;28;20025;-85
2023/05/19 05:00:44;;;;;;;15.52;10.57;;;;;;;7.65;92.37;102513.19;5030872;28;20041;-85
2023/05/19 05:03:11;;;;;;;16.00;11.10;;;;;;;7.73;91.98;102525.22;5030169;28;20119;-84
2023/05/19 05:05:36;;;;;;;18.98;10.77;;;;;;;7.73;92.18;102516.41;5042500;28;20025;-84
2023/05/19 05:08:02;;;;;;;17.63;10.93;;;;;;;7.71;92.66;102511.19;5034998;28;20039;-84
2023/05/19 05:10:27;;;;;;;16.35;11.02;;;;;;;7.80;92.34;102522.34;5042982;28;20029;-84
2023/05/19 05:12:52;;;;;;;14.30;10.93;;;;;;;7.87;92.24;102527.31;5041055;28;20033;-85
2023/05/19 05:15:18;;;;;;;14.70;10.35;;;;;;;7.93;92.02;102521.81;5043709;28;20026;-84
2023/05/19 05:17:44;;;;;;;19.45;11.30;;;;;;;7.94;92.21;102518.25;5036494;28;20053;-84
2023/05/19 05:20:11;;;;;;;19.77;11.07;;;;;;;8.04;91.73;102528.47;5050585;28;20040;-84
2023/05/19 05:22:39;;;;;;;15.60;10.65;;;;;;;8.12;91.86;102524.59;5038883;28;20031;-84
2023/05/19 05:25:05;;;;;;;20.20;11.55;;;;;;;8.24;92.09;102523.22;5042756;28;20025;-84
2023/05/19 05:27:31;;;;;;;19.40;10.75;;;;;;;8.38;91.20;102528.00;5033384;28;20017;-85
2023/05/19 05:29:56;;;;;;;16.42;10.68;;;;;;;8.51;90.32;102528.41;5033619;28;20116;-84
2023/05/19 05:32:22;;;;;;;15.80;10.35;;;;;;;8.69;88.98;102532.94;5032943;28;20104;-84
2023/05/19 05:34:47;;;;;;;15.55;10.77;;;;;;;8.81;88.36;102525.38;5033119;28;20486;-83
2023/05/19 05:37:12;;;;;;;18.67;10.27;;;;;;;9.04;88.02;102530.56;5033450;28;20037;-84
2023/05/19 05:39:38;;;;;;;19.50;10.20;;;;;;;9.14;86.76;102535.47;5033103;28;20502;-84
2023/05/19 05:42:03;;;;;;;13.13;9.63;;;;;;;9.25;86.09;102530.56;5033467;28;20030;-84
2023/05/19 05:44:29;;;;;;;15.05;9.80;;;;;;;9.35;85.33;102525.72;5033266;28;20091;-84
2023/05/19 05:46:54;;;;;;;16.88;10.90;;;;;;;9.45;84.57;102521.72;5034081;28;20022;-85
2023/05/19 05:49:20;;;;;;;15.30;10.65;;;;;;;9.52;84.20;102528.47;5031857;28;20037;-85
2023/05/19 05:51:46;;;;;;;16.55;9.73;;;;;;;9.62;83.84;102526.25;5037282;28;20018;-85
2023/05/19 05:54:12;;;;;;;14.25;9.95;;;;;;;9.65;83.52;102522.63;5026100;28;20030;-84
2023/05/19 05:56:38;;;;;;;16.50;9.43;;;;;;;9.61;82.71;102513.94;5045406;28;20036;-84
2023/05/19 05:59:04;;;;;;;18.45;9.68;;;;;;;9.72;82.62;102524.03;5048239;28;20025;-85
2023/05/19 06:01:30;;;;;;;15.30;9.98;;;;;;;9.86;82.64;102529.59;5037326;28;20025;-85
2023/05/19 06:03:55;;;;;;;15.13;9.85;;;;;;;9.90;82.44;102519.69;5040436;28;20172;-85
2023/05/19 06:06:21;;;;;;;15.77;9.30;;;;;;;9.98;81.45;102523.69;5054338;28;20025;-85
2023/05/19 06:08:46;;;;;;;14.98;9.32;;;;;;;10.12;81.12;102536.31;5042657;28;20041;-84
2023/05/19 06:11:11;;;;;;;12.73;9.13;;;;;;;10.24;80.72;102541.97;5049050;28;20125;-84
2023/05/19 06:13:37;;;;;;;15.40;9.38;;;;;;;10.31;80.80;102544.25;5054332;28;20136;-85
2023/05/19 06:16:04;;;;;;;16.05;9.13;;;;;;;10.43;81.00;102540.19;5030576;28;20038;-85
2023/05/19 06:18:30;;;;;;;14.77;8.98;;;;;;;10.57;80.36;102538.66;5032875;28;20116;-85
2023/05/19 06:20:55;;;;;;;12.25;8.95;;;;;;;10.71;79.99;102530.84;5035876;28;20029;-86
2023/05/19 06:23:21;;;;;;;13.32;8.77;;;;;;;10.93;79.34;102535.94;5025460;28;20061;-85
2023/05/19 06:25:46;;;;;;;16.77;8.98;;;;;;;11.06;78.35;102528.19;5033448;28;20030;-85
2023/05/19 06:28:11;;;;;;;15.23;8.48;;;;;;;11.14;76.88;102533.97;5036103;28;20048;-85
2023/05/19 06:30:37;;;;;;;14.07;8.18;;;;;;;11.26;77.19;102538.66;5033835;28;20065;-85
2023/05/19 06:33:02;;;;;;;17.67;8.65;;;;;;;11.37;76.42;102540.72;5037839;28;20052;-84
2023/05/19 06:35:31;;;;;;;16.75;8.52;;;;;;;11.50;75.99;102548.09;5024127;28;20029;-85
2023/05/19 06:37:56;;;;;;;16.77;8.77;;;;;;;11.66;76.39;102539.19;5036169;28;20050;-85
2023/05/19 06:40:22;;;;;;;14.65;8.48;;;;;;;11.94;75.76;102539.50;5036017;28;20036;-84
2023/05/19 06:42:47;;;;;;;16.85;8.43;;;;;;;12.09;74.07;102540.44;5034355;28;20034;-85
2023/05/19 06:45:13;;;;;;;15.98;8.13;;;;;;;12.11;73.13;102526.13;5036212;28;20337;-85
2023/05/19 06:47:43;;;;;;;13.32;8.07;;;;;;;12.36;73.75;102536.25;5034360;28;20038;-85
2023/05/19 06:50:08;;;;;;;15.57;7.88;;;;;;;12.55;72.47;102521.84;5034036;28;20037;-85
2023/05/19 06:52:34;;;;;;;14.40;7.57;;;;;;;12.67;70.49;102534.44;5036535;28;20034;-84
2023/05/19 06:55:04;;;;;;;16.63;8.23;;;;;;;12.83;69.78;102529.09;5033049;28;20414;-85
2023/05/19 06:57:30;;;;;;;10.82;7.82;;;;;;;12.99;69.18;102529.03;5034977;28;20056;-84
2023/05/19 06:59:55;;;;;;;16.83;7.68;;;;;;;13.16;68.32;102532.50;5036861;28;20475;-85
2023/05/19 07:02:20;;;;;;;13.70;7.25;;;;;;;13.25;68.14;102510.59;5040758;28;20037;-83
2023/05/19 07:04:46;;;;;;;14.95;7.75;;;;;;;13.40;67.04;102528.34;5040720;28;20029;-85
2023/05/19 07:07:11;;;;;;;12.25;7.85;;;;;;;13.63;67.39;102526.06;5038843;28;20534;-84
2023/05/19 07:09:37;;;;;;;13.70;7.38;;;;;;;13.86;66.25;102529.97;5037792;28;20068;-85
2023/05/19 07:12:02;;;;;;;12.95;7.00;;;;;;;14.09;64.82;102530.28;5036441;28;20033;-84
2023/05/19 07:14:31;;;;;;;11.73;7.10;;;;;;;14.36;65.20;102523.16;5032874;28;20026;-86
2023/05/19 07:16:56;;;;;;;13.60;7.17;;;;;;;14.61;64.55;102518.88;5029209;28;20029;-84
2023/05/19 07:19:22;;;;;;;11.35;7.30;;;;;;;14.87;63.86;102519.81;5038043;28;20771;-85
2023/05/19 07:21:48;;;;;;;12.57;7.43;;;;;;;15.16;62.46;102525.81;5034924;28;20029;-85
2023/05/19 07:24:14;;;;;;;13.02;6.47;;;;;;;15.40;61.05;102525.03;5034686;28;20399;-85
2023/05/19 07:26:39;;;;;;;11.50;6.75;;;;;;;15.72;60.04;102524.56;5030415;28;20396;-85
2023/05/19 07:29:06;;;;;;;14.00;6.40;;;;;;;15.84;60.24;102514.84;5033326;28;20069;-85
2023/05/19 07:31:31;;;;;;;11.43;6.40;;;;;;;16.23;58.82;102528.97;5032751;28;20033;-86
2023/05/19 07:33:57;;;;;;;14.30;6.45;;;;;;;16.48;58.19;102521.78;5034506;28;20033;-85
2023/05/19 07:36:22;;;;;;;12.98;5.88;;;;;;;16.63;54.96;102510.75;5033222;28;20475;-83
2023/05/19 07:38:49;;;;;;;11.93;5.78;;;;;;;16.80;54.11;102527.38;5040759;28;20456;-83
2023/05/19 07:41:14;;;;;;;16.30;5.85;;;;;;;16.94;53.22;102518.34;5041881;28;20030;-84
2023/05/19 07:43:46;;;;;;;14.27;6.07;;;;;;;17.04;54.26;102505.03;5037744;28;20022;-84
2023/05/19 07:46:11;;;;;;;10.07;6.13;;;;;;;17.32;54.04;102514.47;5031490;28;20037;-84
2023/05/19 07:48:37;;;;;;;16.35;5.72;;;;;;;17.50;52.01;102507.66;5039907;28;20030;-82
2023/05/19 07:51:02;;;;;;;11.77;5.82;;;;;;;17.54;51.07;102497.53;5037015;28;20483;-83
2023/05/19 07:53:27;;;;;;;13.18;5.85;;;;;;;17.76;51.11;102507.38;5041814;28;20081;-83
2023/05/19 07:55:53;;;;;;;12.85;5.68;;;;;;;17.97;50.46;102510.19;5040779;28;20112;-84
2023/05/19 07:58:19;;;;;;;11.80;6.18;;;;;;;18.22;50.41;102509.03;5038333;28;20097;-83
2023/05/19 08:00:44;;;;;;;13.43;5.20;;;;;;;18.27;48.99;102498.75;5039593;28;20037;-83
2023/05/19 08:03:10;;;;;;;8.98;5.30;;;;;;;18.59;48.47;102503.25;5037932;28;20033;-83
2023/05/19 08:05:36;;;;;;;8.98;5.32;;;;;;;18.71;47.32;102497.81;5036435;28;20036;-83
2023/05/19 08:08:02;;;;;;;9.23;4.70;;;;;;;18.97;46.97;102506.41;5038863;28;20029;-83
2023/05/19 08:10:30;;;;;;;8.43;4.80;;;;;;;19.05;46.92;102493.09;5041803;28;20556;-84
2023/05/19 08:12:55;;;;;;;8.82;4.75;;;;;;;19.21;46.96;102500.72;5035676;28;20033;-85
2023/05/19 08:15:24;;;;;;;8.70;5.20;;;;;;;19.31;46.25;102492.69;5030882;28;20041;-86
2023/05/19 08:17:50;;;;;;;10.60;4.68;;;;;;;19.38;45.58;102489.31;5030387;28;20085;-86
2023/05/19 08:20:15;;;;;;;13.25;4.78;;;;;;;19.60;46.22;102496.34;5029760;28;20032;-86
2023/05/19 08:22:41;;;;;;;10.10;4.47;;;;;;;19.71;45.55;102498.06;5033538;28;20022;-86
2023/05/19 08:25:07;;;;;;;9.40;4.32;;;;;;;19.95;44.86;102491.47;5028860;28;20425;-86
2023/05/19 08:27:32;;;;;;;7.68;4.00;;;;;;;20.06;46.40;102488.66;5034369;28;20474;-86
2023/05/19 08:29:58;;;;;;;10.27;4.78;;;;;;;20.29;45.74;102481.16;5032908;28;20059;-86
2023/05/19 08:32:23;;;;;;;10.15;4.63;;;;;;;20.48;45.39;102476.75;5033195;28;20025;-85
2023/05/19 08:34:49;;;;;;;9.95;4.68;;;;;;;20.78;43.52;102480.31;5031467;28;20025;-85
2023/05/19 08:37:14;;;;;;;9.50;4.82;;;;;;;20.97;42.67;102468.63;5024462;28;20021;-85
2023/05/19 08:39:39;;;;;;;10.68;4.32;;;;;;;21.34;42.23;102467.75;5032097;28;20064;-85
2023/05/19 08:42:06;;;;;;;10.07;4.30;;;;;;;21.35;41.52;102464.91;5032397;28;20124;-85
2023/05/19 08:44:32;;;;;;;10.10;4.35;;;;;;;21.46;41.37;102458.44;5032154;28;20026;-85
2023/05/19 08:47:01;;;;;;;10.23;4.80;;;;;;;21.43;40.21;102451.50;5034059;28;20355;-86
2023/05/19 08:49:27;;;;;;;12.43;4.50;;;;;;;21.89;40.83;102456.94;5033660;28;20017;-85
2023/05/19 08:52:31;;;;;;;11.50;4.43;;;;;;;21.99;41.43;102460.44;5032469;28;20364;-85
2023/05/19 08:55:11;;;;;;;8.43;3.53;;;;;;;22.34;39.98;102438.97;5027491;28;20029;-85
2023/05/19 08:57:37;;;;;;;10.35;3.65;;;;;;;22.59;38.55;102447.28;5033853;28;20025;-86
2023/05/19 09:00:13;;;;;;;6.28;3.80;;;;;;;22.76;36.26;102442.81;5033486;28;20370;-85
2023/05/19 09:02:40;;;;;;;9.70;3.63;;;;;;;22.87;36.60;102456.09;5028414;28;20021;-85
2023/05/19 09:05:06;;;;;;;11.75;4.13;;;;;;;23.21;36.25;102458.00;5052382;28;20074;-85
2023/05/19 09:07:34;;;;;;;5.65;3.08;;;;;;;23.49;35.87;102438.81;5036018;28;20025;-85
2023/05/19 09:10:00;;;;;;;6.97;2.90;;;;;;;23.89;35.89;102440.81;5032526;28;20045;-85
2023/05/19 09:12:26;;;;;;;9.90;2.90;;;;;;;23.83;35.13;102439.63;5031409;28;20030;-84
2023/05/19 09:14:51;;;;;;;8.93;2.88;;;;;;;24.02;33.90;102435.75;5044750;28;20033;-84
2023/05/19 09:17:17;;;;;;;7.05;3.00;;;;;;;23.88;33.70;102425.56;5026967;28;20049;-84
2023/05/19 09:19:46;;;;;;;6.80;2.85;;;;;;;23.86;31.27;102440.31;5032891;28;20387;-84
2023/05/19 09:22:15;;;;;;;6.93;2.53;;;;;;;24.10;32.53;102428.59;5039206;28;20388;-84
2023/05/19 09:24:40;;;;;;;8.43;2.88;;;;;;;24.02;31.80;102424.03;5032848;28;20112;-84
2023/05/19 09:27:06;;;;;;;7.25;2.60;;;;;;;24.16;31.10;102430.66;5031113;28;20109;-85
2023/05/19 09:29:32;;;;;;;6.28;2.60;;;;;;;24.39;31.52;102425.41;5032832;28;20037;-86
2023/05/19 09:32:03;;;;;;;12.20;2.22;;;;;;;24.35;29.53;102424.06;5031085;28;20026;-86
2023/05/19 09:34:28;;;;;;;7.78;2.40;;;;;;;24.16;29.93;102426.09;5041673;28;20445;-86
2023/05/19 09:36:54;;;;;;;5.93;2.50;;;;;;;24.36;29.57;102421.19;5020742;28;20034;-86
2023/05/19 09:39:23;;;;;;;4.78;2.10;;;;;;;24.58;30.78;102412.50;5031213;28;20079;-86
2023/05/19 09:41:54;;;;;;;8.70;2.45;;;;;;;24.64;29.84;102411.81;5017356;28;20033;-86
2023/05/19 09:44:19;;;;;;;6.97;2.78;;;;;;;24.81;29.09;102415.34;5036529;28;20025;-87
2023/05/19 09:46:52;;;;;;;8.35;2.45;;;;;;;25.07;30.76;102404.22;5034546;28;20033;-87
2023/05/19 09:49:31;;;;;;;5.72;1.98;;;;;;;25.14;28.62;102410.66;5035309;28;20502;-86
2023/05/19 09:51:58;;;;;;;6.53;2.25;;;;;;;24.82;28.44;102414.34;5035950;28;20069;-84
2023/05/19 09:54:26;;;;;;;4.88;2.08;;;;;;;24.77;27.77;102414.84;5036632;28;20120;-85
2023/05/19 09:56:59;;;;;;;7.82;2.42;;;;;;;24.98;30.11;102417.00;5034972;28;20053;-85
2023/05/19 09:59:25;;;;;;;7.03;2.42;;;;;;;25.24;28.48;102407.72;5040963;28;20029;-84
2023/05/19 10:01:56;;;;;;;8.93;2.17;;;;;;;25.16;28.78;102403.16;5032438;28;20034;-84
2023/05/19 10:04:23;;;;;;;8.68;2.38;;;;;;;25.26;27.61;102400.22;5034708;28;20099;-84
2023/05/19 10:06:52;;;;;;;8.55;2.63;;;;;;;25.51;27.14;102414.56;5036491;28;20168;-84
2023/05/19 10:09:25;;;;;;;6.53;1.98;;;;;;;25.71;28.75;102419.56;5037811;28;20049;-84
2023/05/19 10:11:52;;;;;;;8.10;2.80;;;;;;;25.92;27.79;102397.97;5024933;28;20029;-84
2023/05/19 10:14:24;;;;;;;8.15;2.28;;;;;;;25.88;27.27;102404.84;5037899;28;20021;-86
2023/05/19 10:16:51;;;;;;;6.30;2.28;;;;;;;25.81;27.90;102410.16;5028985;28;20033;-86
2023/05/19 10:19:19;;;;;;;6.15;2.33;;;;;;;25.42;27.27;102407.50;5050522;28;20025;-86
2023/05/19 10:21:45;;;;;;;7.15;2.33;;;;;;;25.46;27.24;102411.53;5036933;28;20060;-86
2023/05/19 10:24:10;;;;;;;8.85;2.40;;;;;;;25.70;27.59;102401.53;5035495;28;20527;-87
2023/05/19 10:26:38;;;;;;;8.90;2.25;;;;;;;25.88;26.96;102404.84;5035396;28;20456;-86
2023/05/19 10:29:04;;;;;;;4.68;2.22;;;;;;;25.67;25.12;102405.47;5036148;28;20471;-86
2023/05/19 10:31:32;;;;;;;6.50;2.00;;;;;;;25.20;25.16;102396.34;5036278;28;20018;-86
2023/05/19 10:34:42;;;;;;;7.68;2.50;;;;;;;25.41;27.99;102409.34;5037094;28;20509;-85
2023/05/19 10:37:20;;;;;;;4.90;2.08;;;;;;;25.04;26.99;102377.38;5034135;28;20056;-86
2023/05/19 10:39:49;;;;;;;5.00;1.90;;;;;;;25.18;26.76;102392.09;5036128;28;20359;-86
2023/05/19 10:42:22;;;;;;;6.82;2.50;;;;;;;25.21;26.21;102389.03;5036129;28;20036;-86
2023/05/19 10:45:16;;;;;;;7.18;2.20;;;;;;;25.44;28.00;102381.78;5036077;28;20087;-86
2023/05/19 10:47:44;;;;;;;9.15;2.30;;;;;;;25.54;29.06;102386.19;5036423;28;20444;-86
2023/05/19 10:50:10;;;;;;;;;;;;;;;26.16;29.55;102387.94;5035790;28;20063;-86
2023/05/19 10:52:37;;;;;;;6.60;2.38;;;;;;;25.95;27.09;102370.44;5035641;28;19948;-86
2023/05/19 10:55:03;;;;;;;10.98;2.63;;;;;;;25.96;26.18;102390.31;5035803;28;20021;-85
2023/05/19 10:57:31;;;;;;;6.70;2.45;;;;;;;25.93;26.58;102380.63;5037204;28;20108;-86
2023/05/19 10:59:59;;;;;;;8.25;2.40;;;;;;;26.27;26.35;102382.06;5039221;28;20021;-85
2023/05/19 11:02:38;;;;;;;6.47;2.45;;;;;;;26.55;27.92;102379.56;5049012;28;20055;-85
2023/05/19 11:05:27;;;;;;;6.55;2.60;;;;;;;26.45;28.17;102375.44;5050368;28;20025;-85
2023/05/19 11:08:05;;;;;;;7.70;2.47;;;;;;;26.18;25.88;102383.16;5040542;28;20463;-85
2023/05/19 11:10:30;;;;;;;5.88;2.22;;;;;;;26.17;24.96;102382.31;5045708;28;20014;-84
2023/05/19 11:12:56;;;;;;;9.10;2.10;;;;;;;26.22;24.48;102373.59;5056868;28;20053;-84
2023/05/19 11:15:25;;;;;;;8.85;2.13;;;;;;;25.82;25.60;102375.59;5057322;28;20037;-83
2023/05/19 11:17:51;;;;;;;8.50;2.83;;;;;;;25.81;26.09;102369.31;5058550;28;20032;-86
2023/05/19 11:20:26;;;;;;;9.13;2.83;;;;;;;25.79;28.52;102367.81;5040887;28;20045;-86
2023/05/19 11:23:07;;;;;;;9.35;2.67;;;;;;;25.78;26.97;102374.25;5034432;28;20025;-86
2023/05/19 11:25:46;;;;;;;7.25;2.10;;;;;;;25.80;25.52;102369.50;5034584;28;20056;-85
2023/05/19 11:28:14;;;;;;;7.43;2.20;;;;;;;25.67;25.34;102368.22;5034442;28;20440;-84